createdAt,value
2022-08-12T00:02:02.144Z,15.97
2022-08-12T00:03:46.188Z,16.10
2022-08-12T00:05:57.166Z,16.11
2022-08-12T00:08:07.776Z,16.09
2022-08-12T00:10:10.157Z,16.13
2022-08-12T00:12:12.475Z,16.14
2022-08-12T00:14:15.112Z,16.04
2022-08-12T00:16:19.616Z,16.10
2022-08-12T00:18:22.037Z,16.11
2022-08-12T00:20:24.755Z,16.13
2022-08-12T00:22:33.822Z,16.14
2022-08-12T00:24:38.446Z,16.27
2022-08-12T00:26:44.066Z,16.17
2022-08-12T00:28:46.576Z,16.22
2022-08-12T00:30:49.297Z,16.20
2022-08-12T00:32:54.704Z,16.18
2022-08-12T00:35:00.417Z,16.03
2022-08-12T00:37:13.329Z,16.13
2022-08-12T00:39:17.024Z,16.17
2022-08-12T00:41:20.758Z,16.02
2022-08-12T00:43:26.145Z,16.14
2022-08-12T00:45:28.556Z,16.09
2022-08-12T00:47:33.185Z,16.22
2022-08-12T00:49:36.196Z,16.32
2022-08-12T00:51:40.677Z,16.41
2022-08-12T00:53:43.626Z,16.38
2022-08-12T00:55:46.176Z,16.47
2022-08-12T00:57:50.997Z,16.48
2022-08-12T01:00:00.128Z,16.48
2022-08-12T01:02:11.664Z,16.40
2022-08-12T01:04:20.552Z,16.33
2022-08-12T01:06:24.444Z,16.36
2022-08-12T01:08:26.732Z,16.37
2022-08-12T01:10:34.211Z,16.31
2022-08-12T01:12:39.443Z,16.37
2022-08-12T01:14:43.899Z,16.53
2022-08-12T01:16:47.616Z,16.46
2022-08-12T01:18:55.778Z,16.57
2022-08-12T01:21:25.898Z,16.64
2022-08-12T01:23:44.838Z,16.60
2022-08-12T01:25:55.580Z,16.63
2022-08-12T01:27:58.991Z,16.60
2022-08-12T01:30:09.663Z,16.64
2022-08-12T01:32:15.221Z,16.66
2022-08-12T01:34:35.797Z,16.60
2022-08-12T01:36:47.125Z,16.67
2022-08-12T01:38:51.759Z,16.67
2022-08-12T01:40:55.737Z,16.58
2022-08-12T01:43:05.856Z,16.59
2022-08-12T01:45:10.635Z,16.62
2022-08-12T01:47:41.785Z,16.67
2022-08-12T01:49:53.655Z,16.62
2022-08-12T01:52:21.551Z,16.61
2022-08-12T01:54:27.807Z,16.61
2022-08-12T01:56:40.656Z,16.69
2022-08-12T01:58:44.216Z,16.73
2022-08-12T02:00:57.744Z,16.87
2022-08-12T02:03:23.016Z,17.01
2022-08-12T02:05:50.155Z,17.06
2022-08-12T02:08:14.687Z,17.07
2022-08-12T02:10:50.004Z,17.07
2022-08-12T02:13:12.376Z,17.02
2022-08-12T02:15:27.654Z,17.01
2022-08-12T02:18:03.288Z,16.90
2022-08-12T02:20:35.139Z,16.92
2022-08-12T02:22:52.456Z,16.94
2022-08-12T02:25:18.155Z,17.00
2022-08-12T02:27:22.328Z,16.97
2022-08-12T02:29:25.615Z,17.02
2022-08-12T02:31:29.655Z,16.89
2022-08-12T02:33:36.375Z,16.74
2022-08-12T02:35:38.945Z,16.51
2022-08-12T02:37:43.895Z,16.53
2022-08-12T02:39:49.348Z,16.58
2022-08-12T02:41:54.974Z,16.64
2022-08-12T02:44:00.748Z,16.61
2022-08-12T02:46:15.204Z,16.67
2022-08-12T02:48:28.475Z,16.72
2022-08-12T02:50:34.931Z,16.69
2022-08-12T02:52:37.837Z,16.68
2022-08-12T02:54:46.015Z,16.71
2022-08-12T02:56:51.118Z,16.63
2022-08-12T02:58:54.755Z,16.71
2022-08-12T03:00:59.556Z,16.63
2022-08-12T03:03:07.175Z,16.67
2022-08-12T03:05:13.582Z,16.64
2022-08-12T03:07:56.315Z,16.74
2022-08-12T03:10:15.809Z,16.80
2022-08-12T03:12:21.438Z,16.84
2022-08-12T03:14:28.670Z,16.87
2022-08-12T03:16:33.073Z,16.94
2022-08-12T03:18:37.115Z,16.86
2022-08-12T03:20:39.447Z,16.89
2022-08-12T03:22:44.456Z,16.90
2022-08-12T03:24:51.316Z,17.01
2022-08-12T03:27:00.515Z,17.01
2022-08-12T03:29:06.356Z,17.04
2022-08-12T03:31:10.677Z,16.90
2022-08-12T03:33:14.657Z,16.93
2022-08-12T03:35:39.998Z,17.02
2022-08-12T03:37:45.894Z,16.99
2022-08-12T03:39:48.623Z,16.96
2022-08-12T03:42:09.981Z,16.84
2022-08-12T03:44:25.720Z,16.69
2022-08-12T03:46:34.705Z,16.58
2022-08-12T03:48:37.015Z,16.59
2022-08-12T03:50:40.294Z,16.52
2022-08-12T03:52:42.854Z,16.50
2022-08-12T03:54:45.255Z,16.49
2022-08-12T03:56:48.018Z,16.50
2022-08-12T03:58:50.466Z,16.52
2022-08-12T04:00:52.972Z,16.63
2022-08-12T04:02:56.976Z,16.69
2022-08-12T04:04:59.395Z,16.76
2022-08-12T04:07:08.052Z,16.86
2022-08-12T04:09:16.140Z,16.88
2022-08-12T04:11:19.675Z,16.92
2022-08-12T04:13:22.654Z,16.96
2022-08-12T04:15:26.935Z,16.87
2022-08-12T04:17:29.976Z,16.83
2022-08-12T04:19:34.664Z,16.83
2022-08-12T04:21:42.096Z,16.82
2022-08-12T04:24:02.817Z,16.80
2022-08-12T04:26:06.715Z,16.76
2022-08-12T04:28:14.097Z,16.76
2022-08-12T04:30:32.063Z,16.73
2022-08-12T04:32:39.610Z,16.74
2022-08-12T04:34:47.014Z,16.64
2022-08-12T04:36:49.582Z,16.70
2022-08-12T04:38:56.489Z,16.78
2022-08-12T04:41:03.527Z,16.84
2022-08-12T04:43:06.316Z,16.84
2022-08-12T04:45:30.410Z,16.86
2022-08-12T04:47:33.556Z,16.93
2022-08-12T04:49:36.464Z,17.02
2022-08-12T04:51:40.015Z,17.08
2022-08-12T04:53:43.574Z,17.13
2022-08-12T04:55:46.076Z,17.16
2022-08-12T04:57:48.340Z,17.20
2022-08-12T04:59:50.806Z,17.41
2022-08-12T05:01:54.038Z,18.14
2022-08-12T05:03:58.615Z,18.99
2022-08-12T05:06:02.757Z,19.65
2022-08-12T05:08:10.175Z,20.44
2022-08-12T05:10:12.954Z,21.12
2022-08-12T05:12:18.835Z,21.69
2022-08-12T05:14:21.395Z,22.20
2022-08-12T05:16:30.791Z,22.68
2022-08-12T05:18:39.736Z,23.10
2022-08-12T05:20:42.696Z,23.38
2022-08-12T05:22:46.179Z,23.78
2022-08-12T05:24:49.816Z,24.09
2022-08-12T05:26:52.215Z,24.45
2022-08-12T05:28:54.557Z,24.84
2022-08-12T05:30:59.143Z,25.32
2022-08-12T05:33:04.078Z,25.63
2022-08-12T05:35:08.996Z,25.87
2022-08-12T05:37:11.875Z,26.00
2022-08-12T05:39:14.551Z,26.01
2022-08-12T05:41:16.916Z,26.08
2022-08-12T05:43:21.255Z,26.21
2022-08-12T05:45:23.655Z,26.44
2022-08-12T05:47:38.485Z,26.26
2022-08-12T05:49:48.556Z,26.39
2022-08-12T05:51:51.175Z,26.70
2022-08-12T05:53:56.476Z,26.87
2022-08-12T05:56:00.715Z,26.77
2022-08-12T05:58:05.105Z,26.69
2022-08-12T06:00:08.244Z,26.69
2022-08-12T06:02:14.121Z,26.95
2022-08-12T06:04:16.455Z,26.89
2022-08-12T06:06:22.337Z,26.42
2022-08-12T06:08:25.657Z,26.30
2022-08-12T06:10:32.180Z,26.36
2022-08-12T06:12:35.056Z,26.48
2022-08-12T06:14:39.050Z,26.49
2022-08-12T06:16:42.017Z,26.39
2022-08-12T06:18:45.298Z,26.34
2022-08-12T06:20:48.355Z,26.29
2022-08-12T06:22:51.159Z,26.10
2022-08-12T06:24:57.057Z,25.93
2022-08-12T06:26:59.595Z,25.55
2022-08-12T06:29:02.043Z,24.99
2022-08-12T06:33:57.632Z,24.61
2022-08-12T06:35:50.423Z,24.35
2022-08-12T06:37:56.490Z,24.09
2022-08-12T06:40:03.581Z,24.23
2022-08-12T06:42:33.180Z,24.44
2022-08-12T06:44:29.325Z,24.15
2022-08-12T06:46:31.867Z,23.95
2022-08-12T06:48:34.120Z,23.78
2022-08-12T06:50:39.951Z,23.51
2022-08-12T06:52:44.395Z,23.42
2022-08-12T06:54:46.646Z,23.46
2022-08-12T06:58:06.986Z,23.66
2022-08-12T06:59:11.464Z,23.40
2022-08-12T07:01:16.084Z,23.12
2022-08-12T07:03:23.046Z,23.28
2022-08-12T07:05:27.433Z,23.22
2022-08-12T07:07:29.874Z,23.20
2022-08-12T07:10:07.088Z,23.17
2022-08-12T07:11:59.583Z,23.32
2022-08-12T07:14:13.044Z,23.27
2022-08-12T07:16:18.273Z,23.32
2022-08-12T07:18:21.793Z,23.52
2022-08-12T07:20:50.801Z,23.51
2022-08-12T07:22:48.453Z,23.51
2022-08-12T07:24:54.483Z,23.60
2022-08-12T07:26:57.045Z,23.62
2022-08-12T07:29:01.103Z,23.78
2022-08-12T07:31:19.144Z,23.80
2022-08-12T07:33:30.003Z,23.78
2022-08-12T07:35:40.562Z,23.66
2022-08-12T07:37:44.524Z,23.63
2022-08-12T07:39:50.592Z,23.97
2022-08-12T07:42:23.023Z,24.00
2022-08-12T07:44:51.668Z,24.02
2022-08-12T07:46:55.694Z,23.80
2022-08-12T07:49:08.417Z,23.84
2022-08-12T07:51:12.463Z,23.83
2022-08-12T07:53:27.893Z,23.90
2022-08-12T07:55:30.135Z,23.98
2022-08-12T07:57:33.124Z,24.16
2022-08-12T07:59:35.273Z,24.29
2022-08-12T08:01:38.818Z,24.61
2022-08-12T08:03:51.564Z,24.97
2022-08-12T08:05:58.884Z,25.04
2022-08-12T08:08:18.206Z,24.85
2022-08-12T08:10:21.110Z,24.99
2022-08-12T08:12:54.102Z,24.92
2022-08-12T08:14:56.628Z,24.84
2022-08-12T08:17:02.024Z,24.88
2022-08-12T08:19:14.334Z,24.93
2022-08-12T08:21:16.964Z,25.31
2022-08-12T08:23:19.443Z,25.74
2022-08-12T08:25:36.221Z,26.01
2022-08-12T08:27:44.603Z,26.29
2022-08-12T08:29:49.542Z,26.58
2022-08-12T08:31:53.234Z,26.46
2022-08-12T08:34:09.533Z,26.31
2022-08-12T08:36:23.974Z,26.10
2022-08-12T08:38:32.640Z,26.09
2022-08-12T08:40:40.413Z,26.28
2022-08-12T08:42:51.483Z,26.33
2022-08-12T08:44:57.936Z,25.98
2022-08-12T08:47:07.051Z,25.72
2022-08-12T08:49:17.969Z,25.65
2022-08-12T08:51:36.299Z,25.38
2022-08-12T08:53:52.754Z,25.23
2022-08-12T08:56:20.828Z,25.11
2022-08-12T08:58:32.864Z,24.80
2022-08-12T09:00:39.133Z,24.80
2022-08-12T09:04:21.345Z,24.65
2022-08-12T09:06:02.907Z,24.38
2022-08-12T09:08:22.422Z,24.24
2022-08-12T09:11:01.733Z,24.15
2022-08-12T09:14:10.707Z,24.06
2022-08-12T09:20:50.685Z,24.68
2022-08-12T09:26:22.557Z,25.39
2022-08-12T09:28:53.035Z,25.33
2022-08-12T09:30:59.053Z,25.37
2022-08-12T09:33:14.304Z,25.13
2022-08-12T09:35:28.264Z,24.82
2022-08-12T09:37:55.172Z,24.61
2022-08-12T09:40:05.845Z,24.26
2022-08-12T09:42:42.984Z,24.16
2022-08-12T09:45:18.277Z,24.26
2022-08-12T09:47:14.877Z,24.13
2022-08-12T09:49:18.317Z,24.11
2022-08-12T09:51:38.385Z,24.24
2022-08-12T09:53:46.498Z,24.24
2022-08-12T09:56:58.902Z,24.31
2022-08-12T09:58:57.280Z,24.25
2022-08-12T10:00:54.243Z,24.51
2022-08-12T10:03:08.887Z,24.70
2022-08-12T10:08:30.825Z,24.67
2022-08-12T10:10:42.836Z,24.80
2022-08-12T10:13:06.818Z,24.85
2022-08-12T10:15:15.380Z,24.65
2022-08-12T10:17:33.602Z,24.76
2022-08-12T10:19:38.806Z,25.10
2022-08-12T10:21:45.707Z,25.35
2022-08-12T10:23:57.887Z,25.51
2022-08-12T10:26:34.651Z,25.79
2022-08-12T10:28:25.337Z,26.07
2022-08-12T10:30:41.646Z,26.21
2022-08-12T10:32:56.146Z,26.64
2022-08-12T10:34:59.647Z,26.79
2022-08-12T10:38:36.043Z,26.78
2022-08-12T10:40:06.192Z,26.63
2022-08-12T10:42:18.382Z,26.46
2022-08-12T10:44:32.265Z,26.15
2022-08-12T10:46:39.494Z,26.06
2022-08-12T10:48:58.082Z,25.99
2022-08-12T10:52:04.525Z,25.81
2022-08-12T10:53:43.954Z,25.56
2022-08-12T10:55:56.050Z,25.89
2022-08-12T10:58:27.989Z,26.05
2022-08-12T11:00:34.631Z,26.37
2022-08-12T11:04:18.439Z,26.35
2022-08-12T11:07:06.571Z,26.10
2022-08-12T11:08:33.860Z,25.63
2022-08-12T11:10:01.565Z,25.48
2022-08-12T11:12:55.254Z,25.34
2022-08-12T11:14:49.336Z,25.63
2022-08-12T11:17:34.918Z,25.83
2022-08-12T11:19:31.031Z,25.78
2022-08-12T11:21:56.894Z,25.77
2022-08-12T11:23:57.777Z,25.62
2022-08-12T11:26:06.951Z,25.63
2022-08-12T11:28:09.957Z,25.56
2022-08-12T11:30:31.407Z,25.38
2022-08-12T11:32:38.889Z,25.45
2022-08-12T11:34:53.637Z,25.38
2022-08-12T11:37:04.802Z,25.50
2022-08-12T11:39:07.624Z,25.57
2022-08-12T11:41:14.685Z,25.60
2022-08-12T11:43:23.516Z,25.80
2022-08-12T11:45:30.245Z,25.98
2022-08-12T11:47:55.510Z,26.00
2022-08-12T11:49:59.166Z,26.30
2022-08-12T11:55:02.709Z,26.65
2022-08-12T11:58:45.146Z,26.93
2022-08-12T12:14:07.444Z,25.51
2022-08-12T12:16:10.920Z,25.58
2022-08-12T12:25:12.916Z,26.11
2022-08-12T12:28:40.695Z,26.37
2022-08-12T12:32:53.439Z,26.27
2022-08-12T12:36:30.282Z,26.00
2022-08-12T12:43:42.795Z,25.76
2022-08-12T12:46:54.808Z,26.02
2022-08-12T12:49:06.853Z,26.18
2022-08-12T12:52:19.875Z,26.59
2022-08-12T13:09:22.300Z,26.87
2022-08-12T13:12:53.174Z,26.81
2022-08-12T13:19:25.070Z,26.96
2022-08-12T13:38:02.817Z,26.75
2022-08-12T13:40:07.188Z,26.53
2022-08-12T13:45:11.670Z,26.42
2022-08-12T13:47:19.687Z,26.44
2022-08-12T13:49:54.893Z,26.60
2022-08-12T13:53:16.669Z,26.94
2022-08-12T13:56:39.147Z,26.87
2022-08-12T13:59:11.805Z,27.34
2022-08-12T14:01:14.563Z,27.45
2022-08-12T14:08:21.304Z,27.62
2022-08-12T14:33:51.291Z,26.80
2022-08-12T14:36:37.041Z,26.98
2022-08-12T14:52:16.161Z,26.22
2022-08-12T14:56:59.369Z,25.84
2022-08-12T15:10:02.272Z,25.85
2022-08-12T15:18:55.183Z,26.16
2022-08-12T15:22:15.155Z,26.17
2022-08-12T15:31:21.178Z,26.21
2022-08-12T15:34:30.821Z,26.15
2022-08-12T15:36:53.859Z,26.11
2022-08-12T15:38:58.519Z,26.04
2022-08-12T15:41:01.723Z,26.24
2022-08-12T15:43:09.815Z,26.26
2022-08-12T15:45:23.530Z,26.12
2022-08-12T15:48:16.987Z,26.14
2022-08-12T15:50:29.032Z,25.91
2022-08-12T15:52:31.679Z,25.76
2022-08-12T15:54:50.658Z,25.59
2022-08-12T15:57:33.458Z,25.54
2022-08-12T16:02:50.596Z,25.36
2022-08-12T16:04:55.112Z,25.39
2022-08-12T16:07:30.935Z,25.42
2022-08-12T16:09:56.758Z,25.61
2022-08-12T16:12:06.053Z,25.69
2022-08-12T16:23:55.190Z,25.66
2022-08-12T16:26:14.747Z,25.69
2022-08-12T16:28:18.369Z,25.71
2022-08-12T16:30:31.456Z,25.70
2022-08-12T16:32:35.572Z,25.70
2022-08-12T16:36:58.805Z,25.51
2022-08-12T16:39:18.418Z,25.59
2022-08-12T16:42:18.308Z,25.35
2022-08-12T16:45:22.988Z,25.30
2022-08-12T16:53:59.313Z,24.94
2022-08-12T16:56:37.198Z,25.04
2022-08-12T17:08:29.056Z,24.76
2022-08-12T17:09:34.358Z,24.80
2022-08-12T17:13:10.017Z,24.63
2022-08-12T17:15:50.296Z,24.76
2022-08-12T17:18:42.859Z,24.65
2022-08-12T17:20:51.438Z,24.60
2022-08-12T17:22:54.397Z,24.52
2022-08-12T17:25:29.935Z,24.59
2022-08-12T17:27:34.210Z,24.51
2022-08-12T17:30:02.969Z,24.30
2022-08-12T17:32:07.727Z,24.42
2022-08-12T17:34:17.484Z,24.39
2022-08-12T17:36:22.427Z,24.36
2022-08-12T17:38:28.251Z,24.30
2022-08-12T17:40:42.329Z,24.23
2022-08-12T17:42:47.634Z,24.03
2022-08-12T17:44:50.271Z,24.04
2022-08-12T17:46:55.469Z,24.01
2022-08-12T17:48:59.731Z,23.97
2022-08-12T17:51:04.448Z,23.75
2022-08-12T17:53:20.940Z,23.76
2022-08-12T17:55:40.910Z,23.79
2022-08-12T17:57:46.767Z,23.72
2022-08-12T17:59:55.057Z,23.64
2022-08-12T18:01:58.128Z,23.52
2022-08-12T18:04:21.249Z,23.49
2022-08-12T18:06:27.742Z,23.37
2022-08-12T18:08:30.487Z,23.33
2022-08-12T18:10:36.557Z,23.25
2022-08-12T18:12:50.993Z,23.19
2022-08-12T18:15:26.866Z,23.13
2022-08-12T18:17:41.081Z,23.08
2022-08-12T18:20:08.331Z,22.94
2022-08-12T18:22:43.264Z,22.77
2022-08-12T18:25:00.820Z,22.87
2022-08-12T18:27:30.353Z,22.86
2022-08-12T18:29:44.346Z,22.78
2022-08-12T18:31:59.827Z,22.62
2022-08-12T18:34:09.458Z,22.64
2022-08-12T18:36:22.743Z,22.54
2022-08-12T18:38:27.302Z,22.53
2022-08-12T18:40:31.490Z,22.46
2022-08-12T18:42:35.446Z,22.38
2022-08-12T18:44:38.160Z,22.27
2022-08-12T18:46:48.862Z,22.36
2022-08-12T18:49:18.300Z,22.33
2022-08-12T18:51:45.683Z,22.26
2022-08-12T18:54:06.261Z,22.18
2022-08-12T18:56:33.805Z,22.14
2022-08-12T18:58:53.181Z,22.17
2022-08-12T19:01:05.299Z,22.11
2022-08-12T19:03:23.640Z,22.00
2022-08-12T19:05:53.070Z,21.99
2022-08-12T19:08:02.192Z,21.85
2022-08-12T19:10:08.746Z,21.84
2022-08-12T19:12:20.245Z,21.79
2022-08-12T19:14:33.847Z,21.72
2022-08-12T19:24:02.486Z,21.47
2022-08-12T19:26:44.865Z,21.37
2022-08-12T19:30:07.218Z,21.38
2022-08-12T19:32:39.419Z,21.38
2022-08-12T19:36:06.884Z,21.31
2022-08-12T19:38:27.159Z,21.39
2022-08-12T19:40:59.262Z,21.40
2022-08-12T19:43:20.159Z,21.25
2022-08-12T19:45:43.720Z,21.25
2022-08-12T19:51:09.205Z,21.21
2022-08-12T19:53:30.108Z,20.99
2022-08-12T19:55:57.728Z,20.89
2022-08-12T19:58:04.828Z,20.85
2022-08-12T20:00:10.246Z,20.78
2022-08-12T20:02:17.626Z,20.95
2022-08-12T20:04:19.931Z,20.78
2022-08-12T20:06:24.447Z,20.85
2022-08-12T20:08:36.366Z,20.78
2022-08-12T20:10:45.696Z,20.97
2022-08-12T20:13:17.399Z,20.92
2022-08-12T20:15:26.574Z,20.75
2022-08-12T20:17:51.508Z,20.91
2022-08-12T20:20:19.410Z,20.77
2022-08-12T20:22:36.298Z,20.78
2022-08-12T20:24:50.927Z,20.77
2022-08-12T20:27:02.028Z,20.72
2022-08-12T20:34:25.955Z,20.94
2022-08-12T20:36:41.207Z,20.88
2022-08-12T20:39:02.454Z,20.78
2022-08-12T20:41:05.286Z,20.94
2022-08-12T20:43:38.052Z,21.06
2022-08-12T20:46:02.829Z,21.13
2022-08-12T20:48:11.694Z,21.15
2022-08-12T20:50:38.496Z,21.14
2022-08-12T20:52:55.576Z,21.07
2022-08-12T20:55:15.325Z,21.15
2022-08-12T20:57:38.280Z,21.10
2022-08-12T21:02:30.324Z,21.22
2022-08-12T21:07:13.467Z,21.13
2022-08-12T21:09:22.127Z,21.03
2022-08-12T21:11:28.066Z,20.99
2022-08-12T21:13:38.787Z,20.93
2022-08-12T21:18:50.471Z,20.98
2022-08-12T21:21:03.753Z,21.08
2022-08-12T21:23:07.446Z,21.05
2022-08-12T21:25:14.639Z,21.06
2022-08-12T21:27:19.386Z,20.91
2022-08-12T21:29:23.634Z,21.06
2022-08-12T21:32:36.574Z,20.96
2022-08-12T21:34:41.015Z,21.04
2022-08-12T21:37:13.234Z,21.04
2022-08-12T21:39:37.117Z,21.00
2022-08-12T21:47:37.767Z,20.94
2022-08-12T21:49:55.040Z,20.86
2022-08-12T21:51:58.435Z,20.80
2022-08-12T21:54:07.847Z,20.74
2022-08-12T21:56:12.114Z,20.72
2022-08-12T21:58:43.803Z,20.67
2022-08-12T22:00:47.045Z,20.52
2022-08-12T22:02:49.224Z,20.51
2022-08-12T22:04:52.925Z,20.46
2022-08-12T22:06:59.149Z,20.38
2022-08-12T22:09:02.774Z,20.34
2022-08-12T22:11:06.738Z,20.29
2022-08-12T22:14:06.925Z,20.20
2022-08-12T22:15:33.049Z,20.12
2022-08-12T22:17:50.334Z,20.08
2022-08-12T22:20:01.935Z,20.05
2022-08-12T22:22:06.433Z,20.03
2022-08-12T22:26:29.266Z,19.97
2022-08-12T22:28:45.638Z,19.95
2022-08-12T22:37:44.962Z,19.81
2022-08-12T22:39:49.758Z,19.69
2022-08-12T22:41:58.631Z,19.79
2022-08-12T22:44:04.337Z,19.75
2022-08-12T22:46:09.036Z,19.68
2022-08-12T22:48:17.659Z,19.68
2022-08-12T22:50:32.633Z,19.61
2022-08-12T22:52:37.178Z,19.63
2022-08-12T22:57:49.816Z,19.59
2022-08-12T22:59:59.028Z,19.60
2022-08-12T23:02:02.518Z,19.58
2022-08-12T23:04:11.294Z,19.56
2022-08-12T23:06:21.982Z,19.55
2022-08-12T23:08:30.087Z,19.51
2022-08-12T23:10:42.820Z,19.36
2022-08-12T23:12:47.454Z,19.33
2022-08-12T23:14:51.626Z,19.35
2022-08-12T23:16:55.026Z,19.29
2022-08-12T23:19:09.527Z,19.24
2022-08-12T23:21:19.284Z,19.20
2022-08-12T23:23:25.738Z,19.12
2022-08-12T23:25:32.571Z,19.12
2022-08-12T23:27:55.876Z,19.09
2022-08-12T23:30:18.021Z,19.07
2022-08-12T23:32:36.664Z,19.09
2022-08-12T23:34:39.307Z,19.05
2022-08-12T23:36:50.128Z,19.05
2022-08-12T23:38:58.665Z,19.04
2022-08-12T23:41:04.446Z,18.99
2022-08-12T23:43:06.587Z,18.92
2022-08-12T23:45:20.492Z,19.00
2022-08-12T23:47:33.918Z,18.94
2022-08-12T23:49:56.998Z,19.00
2022-08-12T23:52:04.812Z,18.98
2022-08-12T23:54:08.977Z,18.84
2022-08-12T23:56:12.704Z,18.99
2022-08-12T23:58:21.824Z,18.94
